Pagrindinis puslapis
METAR-TAF:

METAR-TAF

Oro uostai :

Mo i Rana, Norvegija

platuma: 66-22N, ilguma: 014-18E, Aukštis: 7 m

Dabartinis oras

Ataskaita buvo paskelbta 33 minutes, ne 05:20 UTC
Vėjas 11 kt iš Vakarų, svyruoja nuo Vakarų/Pietvakarių ir Šiaurės Vakarų
Temperatūra 11°C
Drėgmė 82%
Slėgis 1010 hPa
Matomumas 10 km arba daugiau
Mažai debesys ne aukštis 1000 ft
Išsisklaidę debesys ne aukštis 2500 ft
Su prošvaistėmis ne aukštis 3200 ft
lietus

METAR: ENRA 110520Z 28011KT 250V320 9999 -RA FEW010 SCT025 BKN032 11/08 Q1010 REDZ

Laikas: 07:53 (05:53 UTC)

Prognozė

Ataskaita buvo paskelbta 53 minutes, ne 05:00 UTC
Prognozė galioja nuo 11 metu 06 UTC su 11 metu 15 UTC
Vėjas 12 kt iš Vakarų
Matomumas 10 km arba daugiau
Mažai debesys ne aukštis 1000 ft, aukštai iškilę kamuoliniai debesys.
Su prošvaistėmis ne aukštis 3500 ft
lietus
Laikinai
nuo 11 metu 06 UTC su 11 metu 12 UTC
Vėjas 15 kt iš Vakarų su gūsio iki 30 kt
Su prošvaistėmis ne aukštis 1200 ft

TAF: ENRA 110500Z 1106/1115 26012KT 9999 -SHRA FEW010TCU BKN035 TEMPO 1106/1112 28015G30KT BKN012

Orai ataskaitas ir orų prognozės (METAR, TAF).

turimą stotys yra geltonos ir raudonos taškus žemėlapyje.

Perkelti pele per norėdami pamatyti stoties vardą.

Tada spustelėkite, norėdami matyti oro stebėjimo ir prognozės.

Norėdami pakeisti žemėlapį: spustelėkite ant žalios mygtukų su juodo kryžiaus žemyn,; žalią mygtuką su brūkšneliu, jei norite nutolinti; arba žalių rodyklių gretimoms žemėlapius.


METAR-TAF: